AirNav   Air Wisconsin pilot careers
 
 323 users online  

5HO Hope Airport
Hope, Alaska, USA

GOING TO HOPE?


FAA INFORMATION EFFECTIVE 04 JANUARY 2018

Location

FAA Identifier: 5HO
Lat/Long: 60-54-26.1450N / 149-37-22.1250W
60-54.435750N / 149-37.368750W
60.9072625 / -149.6228125
(estimated)
Elevation: 200 ft. / 61 m (estimated)
Variation: 25E (1985)
From city: 1 mile SE of HOPE, AK
Time zone: UTC -9 (UTC -8 during Daylight Saving Time)
Zip code: 99605

Airport Operations

Airport use: Open to the public
Activation date: 11/1950
Control tower: no
ARTCC: ANCHORAGE CENTER
FSS: KENAI FLIGHT SERVICE STATION [907-283-8469]
NOTAMs facility: ENA (NOTAM-D service available)
Attendance: UNATNDD
Wind indicator: yes, WINDSOCKS LOCATED AT BOTH ENDS OF RY 16/34.
Segmented circle: yes

Airport Communications

CTAF: 122.9
WX ASOS at LHD (19 nm NW): PHONE 907-245-1618
WX ASOS at ANC (19 nm NW): 118.4 (907-248-2033)
WX ASOS at MRI (19 nm N): PHONE 907-272-0542

Nearby radio navigation aids

VOR radial/distance  VOR name  Freq  Var
TEDr130/18.5ANCHORAGE VOR/DME113.1518E

 
NDB name  Hdg/Dist  Freq  Var  ID
CAMPBELL LAKE124/20.133818ECMQ -.-. -- --.-

Airport Services

Airframe service: NONE
Powerplant service: NONE
Bottled oxygen: NONE
Bulk oxygen: NONE

Runway Information

Runway 16/34

Dimensions: 2060 x 60 ft. / 628 x 18 m
Surface: gravel, in good condition
Runway edge markings: NSTD MKGS RYS 16 & 34; RY THLDS MKD WITH PLASTIC MARKERS.
RUNWAY 16  RUNWAY 34
Latitude: 60-54.603500N60-54.268000N
Longitude: 149-37.326333W149-37.411167W
Elevation: 175.0 ft.175.0 ft.
Gradient: 1.5%1.5%
Traffic pattern: leftleft
Markings: NSTDNSTD
Obstructions: 56 ft. trees, 110 ft. left and right of centerline51 ft. trees, 5 ft. from runway

Airport Ownership and Management from official FAA records

Ownership: Publicly-owned
Owner: ALASKA DOT&PF CENTRAL REGION
P.O. BOX 196900
ANCHORAGE, AK 99519-6900
Phone 907-338-1466
Manager: DREW MOTSINGER
STATE OF AK - DOTPF, 35200 HOPE HWY
HOPE, AK 99605
Phone 907-269-5672
FOREMAN FROM SILVERTIP STATION.

Airport Operational Statistics

Aircraft based on the field: 8
Single engine airplanes: 8
    
Aircraft operations: avg 40/month *
58% local general aviation
31% transient general aviation
10% air taxi
* for 12-month period ending 31 December 2013

Additional Remarks

BE ALERT RWY CONDITION NOT MONITORED. RECOMMEND VISUAL INSPECTION PRIOR TO LANDING.
SAFETY AREA NORTH END CLEARED 470 FT, SAFETY AREA SOUTH END CLEARED 580 FT.

Instrument Procedures

There are no published instrument procedures at 5HO.

Some nearby airports with instrument procedures:

PANC - Ted Stevens Anchorage International Airport (19 nm NW)
PAMR - Merrill Field Airport (19 nm N)
PAED - Elmendorf Air Force Base (21 nm N)
PAFR - Bryant Army Airfield Heliport (22 nm N)
PAGQ - Big Lake Airport (38 nm N)
 
Loc | Ops | Rwys | IFR | FBO | Links
Com | Nav | Svcs | Stats | Notes

Crowley
 
Area around 5HO (Hope Airport)
 
Road maps at: MapQuest Bing Google
 
Aerial photo
WARNING: Photo may not be current or correct
Aerial photo of 5HO (Hope Airport)
Photo by Jonathan Tack
Photo taken 07-Aug-2006

Do you have a better or more recent aerial photo of Hope Airport that you would like to share? If so, please send us your photo.

 
Sectional chart

 
Airport distance calculator
Flying to Hope Airport? Find the distance to fly.

From to 5HO

Sunrise and sunset
Times for 17-Jan-2018
 Local
(UTC-9)
 Zulu
(UTC)
Morning civil twilight08:5617:56
Sunrise09:5118:51
Sunset16:2701:27
Evening civil twilight17:2102:21

Current date and time
Zulu (UTC)  18-Jan-2018 08:35:32
Local (UTC-9)  17-Jan-2018 23:35:32
 
METAR
PANC 
19nm NW 
180753Z 09003KT 10SM FEW120 M03/M04 A2940 RMK AO2 SLP957 I1001 T10331044 $
PALH 
19nm NW 
180753Z 00000KT 9SM CLR M04/M04 A2941 RMK AO2 SLP959 I1001 T10391044
PAMR 
20nm N 
180753Z 00000KT 10SM CLR M04/M05 A2940 RMK AO2 SLP956 I1000 T10441050
PAED 
21nm N 
180756Z AUTO 36004KT 10SM CLR M01/M01 A2939 RMK AO2 SLP950 T10141014
PAFR 
22nm N 
180758Z AUTO 00000KT 10SM BKN100 BKN130 M03/M03 A2936 RMK AO2 SLP952 T10351035
PATO 
24nm E 
180817Z AUTO 29003KT 10SM BKN002 M01/M01 A2941 RMK AO2 T10061011 TSNO
PABV 
31nm N 
180756Z AUTO 00000KT 9SM OVC095 M03/M03 A2941 RMK AO2 SLP968 T10281033 FZRANO $
TAF
PANC 
19nm NW 
180537Z 1806/1912 VRB04KT P6SM BKN120
PAED 
21nm N 
180300Z 1803/1909 VRB06KT 9999 VCSH SCT070 BKN100 QNH2930INS BECMG 1806/1807 VRB06KT 4800 BR BKN030 BKN070 600307 QNH2940INS BECMG 1812/1814 VRB06KT 0800 FG BKN002 OVC015 600029 QNH2945INS TX04/1823Z TNM07/1815Z
NOTAMs
Click for the latest NOTAMs
NOTAMs are issued by the DoD/FAA and will open in a separate window not controlled by AirNav.

 

 
 

Would you like to see your business listed on this page?

 If your business provides an interesting product or service to pilots, flight crews, aircraft, or users of the Hope Airport, you should consider listing it here.  To start the listing process, click on the button below
 
Add a business
 

Other Pages about Hope Airport

Update a link
 
Copyright © AirNav, LLC. All rights reserved. Privacy Policy  Contact